KB2SKP Weather Reports


Display with metric or nautical units.
time (UTC)temp
F
wind
direction
speed
MPH
gust
MPH
rain 1hr
in
rain 24hr
in
rain mn
in
humidity
%
barometer
mb
20181017221514 62 315 0.0 0.0 0.00 0.10 0.10 27 1017.6
20181017221014 62 315 0.0 0.0 0.00 0.10 0.10 29 1017.6
20181017220514 62 315 0.0 0.0 0.00 0.10 0.10 30 1017.2
20181017220015 63 292 0.0 0.0 0.00 0.10 0.10 31 1017.2
20181017215514 63 292 0.0 0.0 0.00 0.10 0.10 32 1017.2
20181017215014 63 68 0.0 0.0 0.00 0.10 0.10 34 1017.0
20181017214514 64 68 0.0 0.0 0.00 0.10 0.10 35 1016.9
20181017214325 64 68 1.0 1.0 0.00 0.10 0.10 36 1016.9
20181017214017 63 57 1.0 1.0 0.00 0.10 0.10 1 1017.1
20181017214007 59 149 1.0 1.0 0.00 0.10 0.10 1 1018.3
20181017213856 58 146 1.0 1.0 0.00 0.10 0.10 1 1018.9
20181017131013 58 192 1.0 1.0 0.00 0.10 0.10 1 1019.3
20181017130514 57 315 0.0 0.0 0.00 0.10 0.10 1 1018.9
20181017130013 57 292 0.0 0.0 0.00 0.10 0.10 1 1018.7
20181017125513 57 292 0.0 0.0 0.00 0.10 0.10 1 1018.6
20181017125013 57 315 0.0 1.0 0.00 0.10 0.10 1 1018.6
20181017124513 57 292 1.0 2.0 0.00 0.10 0.10 1 1018.6
20181017124013 57 315 1.0 1.0 0.00 0.10 0.10 1 1018.6
20181017123513 57 304 0.0 0.0 0.00 0.10 0.10 1 1018.2
20181017123013 57 315 1.0 1.0 0.00 0.10 0.10 1 1018.6
20181017122513 57 265 0.0 1.0 0.00 0.10 0.10 1 1018.6
20181017122013 57 292 1.0 3.0 0.00 0.10 0.10 1 1018.6
20181017121513 57 292 2.0 2.0 0.00 0.10 0.10 1 1018.6
20181017121013 57 327 1.0 2.0 0.00 0.10 0.10 1 1018.6
20181017120513 57 335 2.0 2.0 0.00 0.10 0.10 1 1018.6
20181017120013 57 355 1.0 2.0 0.00 0.10 0.10 1 1018.6
20181017115515 57 23 1.0 2.0 0.00 0.10 0.10 1 1018.6
20181017115013 57 312 1.0 2.0 0.00 0.10 0.10 1 1018.6
20181017114513 57 315 1.0 2.0 0.00 0.10 0.10 1 1018.6
20181017114013 57 327 1.0 2.0 0.00 0.10 0.10 1 1018.2
20181017113514 57 31 0.0 1.0 0.00 0.10 0.10 1 1018.6
20181017113013 57 315 1.0 1.0 0.00 0.10 0.10 1 1018.2
20181017112513 57 322 1.0 1.0 0.00 0.10 0.10 1 1018.2
20181017112013 57 300 0.0 1.0 0.00 0.10 0.10 1 1018.2
20181017111514 57 315 0.0 0.0 0.03 0.10 0.10 1 1018.2
20181017111014 57 302 0.0 0.0 0.03 0.10 0.10 1 1018.2
20181017110513 57 299 1.0 1.0 0.03 0.10 0.10 1 1018.2
20181017110014 57 249 1.0 1.0 0.03 0.10 0.10 1 1018.2
20181017105513 57 315 0.0 1.0 0.03 0.10 0.10 1 1018.2
20181017105013 58 330 1.0 1.0 0.03 0.10 0.10 1 1018.2
20181017104513 58 315 0.0 1.0 0.04 0.10 0.10 1 1018.4
20181017104013 58 307 0.0 1.0 0.04 0.10 0.10 1 1018.4
20181017103513 58 315 1.0 1.0 0.04 0.10 0.10 1 1018.6
20181017103217 58 308 1.0 1.0 0.04 0.10 0.10 1 1018.6
20181017103101 58 314 1.0 1.0 0.05 0.10 0.10 1 1018.6
20181017102551 58 315 0.0 0.0 0.05 0.10 0.10 1 1018.6
20181017102516 58 315 0.0 0.0 0.05 0.10 0.10 1 1018.6
20181017101517 58 341 0.0 1.0 0.05 0.10 0.10 1 1018.6
20181017101059 56 315 0.0 0.0 0.06 0.10 0.10 1 1018.9
20181017101020 56 315 0.0 0.0 0.06 0.10 0.10 1 1018.9
20181017061011 56 338 0.0 0.0 0.04 0.08 0.08 1 1018.9
20181017060511 55 315 0.0 0.0 0.04 0.07 0.07 1 1018.9
20181017060017 55 338 0.0 0.0 0.04 0.07 0.07 1 1018.9
20181017055513 55 338 0.0 0.0 0.05 0.07 0.07 1 1019.3
20181017055012 55 315 0.0 0.0 0.05 0.07 0.07 1 1019.1
20181017054510 55 315 0.0 0.0 0.05 0.07 0.07 1 1018.9
20181017054011 55 292 0.0 0.0 0.06 0.07 0.07 1 1018.9
20181017053511 55 292 0.0 0.0 0.05 0.06 0.06 1 1019.3
20181017053011 55 299 0.0 1.0 0.05 0.06 0.06 1 1019.3
20181017052510 55 315 0.0 0.0 0.06 0.06 0.06 1 1018.9
20181017052010 55 315 0.0 0.0 0.05 0.05 0.05 1 1018.9
20181017051511 55 315 0.0 0.0 0.05 0.05 0.05 1 1018.9
20181017051011 55 315 0.0 0.0 0.04 0.04 0.04 1 1018.9
20181017050511 55 315 0.0 0.0 0.03 0.03 0.03 1 1018.9
20181017050010 55 315 0.0 0.0 0.03 0.03 0.03 1 1019.3
20181017045510 55 315 0.0 0.0 0.02 0.02 0.02 1 1019.3
20181017045011 55 315 0.0 0.0 0.02 0.02 0.02 1 1019.3
20181017044511 55 315 0.0 0.0 0.02 0.02 0.02 1 1019.5
20181017044010 55 315 0.0 0.0 0.01 0.01 0.01 1 1019.3
20181017043510 55 315 0.0 0.0 0.01 0.01 0.01 1 1019.3
20181017043011 55 315 0.0 0.0 0.01 0.01 0.01 1 1019.3
20181017042511 55 315 0.0 0.0 0.00 0.00 0.00 1 1019.3
20181017042011 55 315 0.0 0.0 0.00 0.00 0.00 1 1019.3
20181017041511 55 315 0.0 0.0 0.00 0.00 0.00 1 1019.3
20181017041011 55 315 0.0 0.0 0.00 0.00 0.00 1 1019.3
20181017040511 55 315 0.0 0.0 0.00 0.00 0.00 1 1019.3
20181017040011 55 315 0.0 0.0 0.00 0.00 0.00 1 1018.9
20181017035510 55 315 0.0 0.0 0.00 0.00 0.00 1 1019.3
20181017035010 55 315 0.0 0.0 0.00 0.00 0.00 1 1019.3
20181017034511 55 315 0.0 0.0 0.00 0.00 0.00 1 1019.6
20181017034010 55 315 0.0 0.0 0.00 0.00 0.00 1 1019.6
20181017033510 55 315 0.0 0.0 0.00 0.00 0.00 1 1019.6
20181017033010 55 315 0.0 0.0 0.00 0.00 0.00 1 1019.9
20181017032510 55 315 0.0 0.0 0.00 0.00 0.00 1 1020.0
20181017032011 55 315 0.0 0.0 0.00 0.00 0.00 1 1020.3
20181017031511 55 315 0.0 0.0 0.00 0.00 0.00 1 1019.9
20181017031011 55 315 0.0 0.0 0.00 0.00 0.00 1 1019.9
20181017030511 55 315 0.0 0.0 0.00 0.00 0.00 1 1019.6
20181017030010 55 315 0.0 0.0 0.00 0.00 0.00 1 1019.9
20181017025510 55 315 0.0 0.0 0.00 0.00 0.00 1 1019.6
20181017025011 55 315 0.0 0.0 0.00 0.00 0.00 1 1019.6
20181017024510 55 315 0.0 0.0 0.00 0.00 0.00 1 1019.7
20181017024010 55 315 0.0 0.0 0.00 0.00 0.00 1 1019.9
20181017023510 55 315 0.0 0.0 0.00 0.00 0.00 1 1019.9
20181017023010 55 315 0.0 0.0 0.00 0.00 0.00 1 1019.9
20181017022510 55 315 0.0 0.0 0.00 0.00 0.00 1 1019.9
20181017022011 55 315 0.0 0.0 0.00 0.00 0.00 1 1020.3
20181017021511 55 315 0.0 0.0 0.00 0.00 0.00 1 1020.3
20181017021010 55 315 0.0 0.0 0.00 0.00 0.00 1 1020.3
20181017020511 55 315 0.0 0.0 0.00 0.00 0.00 1 1019.9
20181017020010 55 315 0.0 0.0 0.00 0.00 0.00 1 1019.9
20181017015510 55 315 0.0 0.0 0.00 0.00 0.00 1 1020.1
20181017015010 55 315 0.0 0.0 0.00 0.00 0.00 1 1020.3
20181017014511 55 315 0.0 0.0 0.00 0.00 0.00 1 1020.6
20181017014010 55 315 0.0 0.0 0.00 0.00 0.00 1 1020.6
20181017013510 55 315 0.0 0.0 0.00 0.00 0.00 1 1020.6
20181017013010 55 315 0.0 0.0 0.00 0.00 0.00 1 1020.5
20181017012510 55 315 0.0 0.0 0.00 0.00 0.00 1 1020.3
20181017012011 55 315 0.0 0.0 0.00 0.00 0.00 1 1020.3
20181017011511 55 315 0.0 0.0 0.00 0.00 0.00 1 1020.3
20181017011010 55 315 0.0 1.0 0.00 0.00 0.00 1 1020.3
20181017010511 55 315 0.0 1.0 0.00 0.00 0.00 1 1020.3
20181017010011 56 0 0.0 0.0 0.00 0.00 0.00 1 1019.9
20181017005510 56 338 0.0 0.0 0.00 0.00 0.00 1 1019.9
20181017005010 56 338 0.0 0.0 0.00 0.00 0.00 1 1019.9
20181017004511 56 338 0.0 0.0 0.00 0.00 0.00 1 1019.9
20181017004011 56 338 0.0 0.0 0.00 0.00 0.00 1 1020.1
20181017003510 56 346 0.0 0.0 0.00 0.00 0.00 1 1019.9
20181017003011 56 338 0.0 0.0 0.00 0.00 0.00 1 1020.3
20181017002510 56 338 0.0 0.0 0.00 0.00 0.00 1 1019.9
20181017002010 56 338 0.0 0.0 0.00 0.00 0.00 1 1020.3
20181017001510 56 338 0.0 0.0 0.00 0.00 0.00 1 1020.3
20181017001010 56 338 0.0 0.0 0.00 0.00 0.00 1 1020.3
20181017000510 56 0 0.0 0.0 0.00 0.00 0.00 1 1020.3
20181017000010 56 0 0.0 0.0 0.00 0.00 0.00 1 1020.3
20181016235510 56 0 0.0 0.0 0.00 0.00 0.00 1 1020.6
20181016235009 56 0 0.0 0.0 0.00 0.00 0.00 1 1020.6
20181016234511 56 0 0.0 0.0 0.00 0.00 0.00 1 1020.3
20181016234010 56 0 0.0 0.0 0.00 0.00 0.00 1 1020.6
20181016233511 56 0 0.0 0.0 0.00 0.00 0.00 3 1020.6
20181016233010 56 0 0.0 0.0 0.00 0.00 0.00 5 1020.6
20181016232510 56 346 0.0 0.0 0.00 0.00 0.00 6 1020.6
20181016232011 56 338 0.0 0.0 0.00 0.00 0.00 7 1020.8
20181016231510 57 338 0.0 0.0 0.00 0.00 0.00 11 1020.6
20181016231010 57 338 0.0 0.0 0.00 0.00 0.00 12 1020.3
20181016230510 57 338 0.0 0.0 0.00 0.00 0.00 11 1020.3
20181016230010 57 338 0.0 0.0 0.00 0.00 0.00 11 1020.3
20181016225510 57 338 0.0 0.0 0.00 0.00 0.00 11 1020.3
20181016225010 57 338 0.0 0.0 0.00 0.00 0.00 13 1020.6
20181016224510 57 338 0.0 0.0 0.00 0.00 0.00 15 1020.3
20181016224010 57 338 0.0 0.0 0.00 0.00 0.00 15 1020.6
20181016223510 58 338 0.0 0.0 0.00 0.00 0.00 15 1020.6
20181016223010 58 338 0.0 0.0 0.00 0.00 0.00 15 1020.6
20181016222510 58 338 0.0 0.0 0.00 0.00 0.00 16 1020.6
20181016222010 58 338 0.0 0.0 0.00 0.00 0.00 17 1020.6